createdAt,value
2022-12-14T00:00:47.550Z,8.23
2022-12-14T00:03:35.076Z,8.30
2022-12-14T00:06:24.330Z,9.33
2022-12-14T00:09:13.178Z,9.17
2022-12-14T00:12:00.239Z,9.20
2022-12-14T00:14:47.689Z,9.07
2022-12-14T00:17:35.825Z,10.27
2022-12-14T00:20:23.662Z,9.97
2022-12-14T00:23:10.812Z,8.87
2022-12-14T00:25:59.687Z,9.27
2022-12-14T00:28:48.353Z,8.97
2022-12-14T00:31:36.417Z,8.83
2022-12-14T00:34:23.624Z,8.43
2022-12-14T00:37:11.044Z,9.20
2022-12-14T00:39:58.622Z,9.20
2022-12-14T00:42:47.012Z,8.77
2022-12-14T00:45:34.118Z,7.13
2022-12-14T00:48:23.802Z,8.07
2022-12-14T00:51:11.208Z,8.90
2022-12-14T00:53:58.498Z,8.47
2022-12-14T00:56:45.802Z,8.37
2022-12-14T00:59:34.639Z,9.67
2022-12-14T01:02:22.011Z,9.07
2022-12-14T01:05:10.052Z,7.07
2022-12-14T01:07:57.640Z,7.53
2022-12-14T01:10:45.022Z,8.13
2022-12-14T01:13:32.413Z,9.77
2022-12-14T01:16:23.079Z,7.80
2022-12-14T01:19:13.617Z,7.57
2022-12-14T01:22:00.786Z,8.00
2022-12-14T01:24:48.577Z,8.17
2022-12-14T01:27:35.761Z,7.23
2022-12-14T01:30:23.134Z,7.87
2022-12-14T01:33:11.925Z,7.77
2022-12-14T01:36:01.443Z,7.67
2022-12-14T01:38:49.449Z,8.27
2022-12-14T01:41:39.338Z,7.80
2022-12-14T01:44:54.243Z,7.57
2022-12-14T01:47:44.468Z,7.27
2022-12-14T01:50:37.371Z,8.90
2022-12-14T01:53:25.459Z,8.87
2022-12-14T01:56:13.248Z,8.90
2022-12-14T01:59:04.257Z,8.43
2022-12-14T02:01:52.644Z,7.90
2022-12-14T02:04:43.649Z,8.53
2022-12-14T02:07:33.101Z,8.00
2022-12-14T02:10:22.517Z,8.07
2022-12-14T02:13:15.549Z,8.17
2022-12-14T02:16:03.166Z,8.17
2022-12-14T02:18:50.182Z,8.40
2022-12-14T02:21:52.514Z,8.60
2022-12-14T02:24:57.228Z,8.10
2022-12-14T02:28:03.684Z,7.57
2022-12-14T02:30:58.028Z,7.27
2022-12-14T02:33:51.954Z,8.27
2022-12-14T02:36:46.381Z,7.20
2022-12-14T02:39:42.169Z,7.20
2022-12-14T02:42:40.271Z,7.53
2022-12-14T02:45:36.298Z,7.47
2022-12-14T02:48:31.078Z,7.97
2022-12-14T02:51:27.317Z,7.33
2022-12-14T02:54:21.964Z,7.80
2022-12-14T02:57:18.279Z,7.47
2022-12-14T03:00:08.039Z,7.93
2022-12-14T03:02:56.762Z,9.53
2022-12-14T03:05:55.391Z,8.53
2022-12-14T03:08:45.600Z,8.73
2022-12-14T03:11:38.989Z,6.83
2022-12-14T03:14:30.621Z,7.60
2022-12-14T03:17:21.453Z,8.13
2022-12-14T03:20:12.335Z,8.43
2022-12-14T03:23:06.645Z,7.43
2022-12-14T03:25:58.539Z,8.10
2022-12-14T03:28:49.433Z,6.50
2022-12-14T03:31:43.889Z,8.13
2022-12-14T03:34:40.235Z,8.57
2022-12-14T03:37:33.643Z,7.27
2022-12-14T03:40:27.937Z,6.97
2022-12-14T03:43:19.863Z,8.53
2022-12-14T03:46:14.472Z,8.17
2022-12-14T03:49:13.820Z,7.03
2022-12-14T03:52:07.935Z,8.20
2022-12-14T03:55:05.730Z,7.43
2022-12-14T03:58:12.533Z,6.80
2022-12-14T04:01:07.771Z,8.03
2022-12-14T04:04:00.353Z,8.60
2022-12-14T04:06:54.036Z,7.10
2022-12-14T04:09:47.494Z,7.00
2022-12-14T04:12:56.678Z,7.37
2022-12-14T04:16:04.228Z,7.40
2022-12-14T04:19:00.482Z,7.70
2022-12-14T04:21:52.586Z,7.30
2022-12-14T04:25:02.434Z,7.70
2022-12-14T04:27:53.101Z,7.30
2022-12-14T04:30:40.279Z,6.60
2022-12-14T04:33:48.021Z,6.67
2022-12-14T04:36:40.085Z,6.60
2022-12-14T04:39:32.380Z,7.33
2022-12-14T04:42:24.850Z,7.27
2022-12-14T04:45:16.769Z,6.33
2022-12-14T04:48:11.466Z,7.83
2022-12-14T04:51:08.774Z,6.83
2022-12-14T04:54:00.934Z,6.60
2022-12-14T04:56:53.293Z,7.67
2022-12-14T04:59:40.805Z,7.50
2022-12-14T05:02:40.241Z,6.90
2022-12-14T05:05:35.515Z,8.07
2022-12-14T05:08:37.373Z,5.20
2022-12-14T05:14:40.534Z,6.87
2022-12-14T05:17:28.604Z,6.17
2022-12-14T05:20:19.064Z,7.70
2022-12-14T05:23:06.521Z,7.30
2022-12-14T05:25:55.591Z,6.40
2022-12-14T05:28:45.916Z,7.93
2022-12-14T05:31:37.490Z,7.43
2022-12-14T05:34:25.124Z,7.87
2022-12-14T05:37:17.963Z,7.10
2022-12-14T05:40:06.900Z,6.73
2022-12-14T05:43:05.055Z,6.90
2022-12-14T05:45:52.165Z,8.30
2022-12-14T05:48:39.663Z,6.47
2022-12-14T05:51:26.893Z,7.13
2022-12-14T05:54:14.337Z,7.83
2022-12-14T05:57:01.648Z,6.13
2022-12-14T05:59:50.687Z,6.30
2022-12-14T06:02:38.217Z,7.83
2022-12-14T06:05:25.480Z,7.40
2022-12-14T06:08:12.617Z,7.53
2022-12-14T06:11:03.650Z,6.17
2022-12-14T06:13:51.232Z,6.33
2022-12-14T06:16:41.488Z,7.70
2022-12-14T06:19:29.084Z,7.03
2022-12-14T06:22:16.096Z,6.77
2022-12-14T06:25:03.522Z,6.90
2022-12-14T06:27:54.375Z,6.07
2022-12-14T06:30:41.736Z,5.80
2022-12-14T06:33:31.150Z,7.40
2022-12-14T06:36:19.786Z,6.03
2022-12-14T06:39:09.226Z,6.87
2022-12-14T06:41:56.801Z,6.90
2022-12-14T06:44:44.133Z,6.80
2022-12-14T06:47:31.601Z,7.23
2022-12-14T06:50:20.484Z,5.70
2022-12-14T06:53:07.722Z,6.77
2022-12-14T06:55:55.126Z,6.80
2022-12-14T06:58:42.658Z,7.57
2022-12-14T07:01:30.643Z,7.10
2022-12-14T07:04:20.938Z,7.00
2022-12-14T07:07:10.433Z,6.70
2022-12-14T07:09:57.755Z,6.00
2022-12-14T07:12:45.251Z,8.33
2022-12-14T07:15:32.974Z,7.17
2022-12-14T07:18:21.380Z,6.10
2022-12-14T07:21:10.522Z,7.23
2022-12-14T07:24:01.517Z,7.07
2022-12-14T07:26:49.082Z,5.77
2022-12-14T07:29:36.377Z,6.63
2022-12-14T07:32:23.808Z,7.10
2022-12-14T07:35:16.420Z,6.73
2022-12-14T07:38:04.854Z,7.00
2022-12-14T07:40:53.975Z,7.07
2022-12-14T07:43:42.623Z,5.37
2022-12-14T07:46:32.007Z,7.60
2022-12-14T07:49:20.022Z,7.67
2022-12-14T07:52:07.361Z,6.10
2022-12-14T07:54:54.774Z,8.33
2022-12-14T07:57:43.626Z,7.20
2022-12-14T08:00:30.680Z,7.53
2022-12-14T08:03:18.049Z,6.93
2022-12-14T08:06:07.103Z,7.60
2022-12-14T08:08:54.771Z,7.57
2022-12-14T08:11:41.772Z,7.87
2022-12-14T08:14:30.653Z,8.03
2022-12-14T08:17:17.903Z,7.47
2022-12-14T08:20:06.494Z,6.70
2022-12-14T08:22:53.567Z,7.47
2022-12-14T08:25:40.977Z,5.37
2022-12-14T08:28:29.655Z,7.80
2022-12-14T08:31:19.914Z,8.13
2022-12-14T08:34:07.290Z,5.63
2022-12-14T08:36:54.774Z,5.97
2022-12-14T08:39:42.126Z,7.93
2022-12-14T08:42:29.578Z,7.50
2022-12-14T08:45:17.028Z,8.07
2022-12-14T08:48:05.856Z,6.80
2022-12-14T08:50:54.730Z,6.63
2022-12-14T08:53:42.146Z,6.50
2022-12-14T08:56:30.110Z,8.20
2022-12-14T08:59:37.047Z,7.23
2022-12-14T09:02:24.616Z,7.63
2022-12-14T09:05:13.386Z,8.00
2022-12-14T09:08:00.694Z,7.23
2022-12-14T09:10:50.389Z,7.40
2022-12-14T09:13:37.862Z,7.13
2022-12-14T09:16:27.193Z,7.73
2022-12-14T09:19:14.770Z,8.43
2022-12-14T09:22:04.102Z,8.23
2022-12-14T09:24:52.159Z,7.33
2022-12-14T09:27:39.559Z,6.97
2022-12-14T09:30:27.312Z,8.00
2022-12-14T09:33:14.582Z,8.53
2022-12-14T09:36:03.604Z,8.20
2022-12-14T09:38:55.083Z,7.23
2022-12-14T09:42:00.765Z,7.63
2022-12-14T09:44:58.937Z,7.17
2022-12-14T09:47:54.328Z,8.03
2022-12-14T09:50:41.884Z,7.17
2022-12-14T09:53:29.629Z,8.10
2022-12-14T09:56:20.148Z,7.67
2022-12-14T09:59:07.568Z,7.90
2022-12-14T10:02:30.343Z,7.90
2022-12-14T10:05:21.193Z,7.47
2022-12-14T10:08:14.554Z,7.37
2022-12-14T10:11:07.254Z,7.03
2022-12-14T10:14:09.270Z,7.60
2022-12-14T10:17:05.996Z,8.03
2022-12-14T10:19:55.428Z,7.70
2022-12-14T10:22:46.186Z,7.40
2022-12-14T10:25:36.430Z,8.17
2022-12-14T10:28:30.892Z,6.63
2022-12-14T10:31:27.727Z,6.97
2022-12-14T10:34:20.597Z,7.83
2022-12-14T10:37:22.704Z,7.77
2022-12-14T10:40:33.104Z,7.00
2022-12-14T10:43:33.932Z,8.20
2022-12-14T10:46:30.098Z,7.60
2022-12-14T10:49:23.417Z,7.50
2022-12-14T10:52:17.594Z,6.87
2022-12-14T10:55:12.633Z,8.03
2022-12-14T10:58:00.651Z,8.80
2022-12-14T11:00:54.231Z,7.93
2022-12-14T11:03:47.538Z,8.37
2022-12-14T11:06:35.211Z,7.77
2022-12-14T11:09:24.287Z,7.13
2022-12-14T11:12:19.882Z,7.63
2022-12-14T11:15:23.277Z,7.83
2022-12-14T11:18:27.913Z,9.10
2022-12-14T11:21:16.905Z,9.70
2022-12-14T11:24:05.218Z,8.83
2022-12-14T11:26:54.556Z,9.30
2022-12-14T11:29:47.114Z,9.03
2022-12-14T11:32:34.464Z,7.93
2022-12-14T11:35:22.793Z,9.73
2022-12-14T11:38:16.709Z,9.73
2022-12-14T11:41:11.041Z,8.77
2022-12-14T11:44:04.747Z,8.80
2022-12-14T11:46:56.367Z,7.53
2022-12-14T11:49:49.454Z,8.60
2022-12-14T11:52:42.879Z,7.03
2022-12-14T11:55:32.008Z,7.20
2022-12-14T11:58:23.124Z,7.43
2022-12-14T12:01:14.622Z,8.53
2022-12-14T12:04:03.216Z,7.53
2022-12-14T12:06:51.317Z,7.83
2022-12-14T12:09:38.872Z,8.60
2022-12-14T12:12:27.939Z,6.67
2022-12-14T12:15:19.540Z,7.23
2022-12-14T12:18:14.394Z,8.43
2022-12-14T12:21:08.026Z,8.23
2022-12-14T12:24:00.104Z,7.73
2022-12-14T12:26:51.289Z,8.77
2022-12-14T12:29:46.549Z,8.67
2022-12-14T12:32:38.393Z,8.17
2022-12-14T12:35:33.728Z,8.87
2022-12-14T12:38:33.546Z,8.53
2022-12-14T12:41:28.994Z,9.07
2022-12-14T12:44:41.457Z,8.70
2022-12-14T12:47:46.085Z,7.00
2022-12-14T12:50:38.778Z,7.80
2022-12-14T12:53:31.467Z,7.97
2022-12-14T12:56:21.463Z,8.27
2022-12-14T12:59:15.530Z,7.83
2022-12-14T13:02:19.005Z,7.80
2022-12-14T13:05:44.338Z,8.60
2022-12-14T13:08:27.316Z,7.90
2022-12-14T13:11:27.785Z,7.83
2022-12-14T13:14:24.001Z,7.67
2022-12-14T13:17:26.085Z,7.27
2022-12-14T13:20:21.991Z,8.03
2022-12-14T13:23:43.674Z,8.17
2022-12-14T13:26:57.198Z,8.03
2022-12-14T13:29:52.284Z,8.43
2022-12-14T13:32:50.193Z,6.90
2022-12-14T13:35:50.823Z,7.73
2022-12-14T13:39:02.634Z,7.53
2022-12-14T13:41:56.308Z,7.67
2022-12-14T13:44:56.872Z,7.97
2022-12-14T13:47:48.523Z,8.27
2022-12-14T13:50:42.414Z,8.87
2022-12-14T13:53:48.350Z,8.47
2022-12-14T13:56:40.399Z,8.80
2022-12-14T13:59:34.037Z,8.23
2022-12-14T14:02:42.459Z,8.30
2022-12-14T14:05:46.755Z,8.03
2022-12-14T14:08:41.319Z,7.83
2022-12-14T14:11:58.937Z,9.17
2022-12-14T14:14:51.905Z,8.47
2022-12-14T14:17:42.671Z,7.43
2022-12-14T14:20:38.689Z,9.03
2022-12-14T14:23:36.845Z,9.10
2022-12-14T14:26:33.329Z,8.93
2022-12-14T14:29:25.809Z,9.00
2022-12-14T14:32:33.305Z,8.80
2022-12-14T14:35:31.469Z,9.77
2022-12-14T14:38:27.171Z,8.47
2022-12-14T14:41:23.815Z,8.63
2022-12-14T14:44:27.294Z,8.93
2022-12-14T14:47:21.928Z,8.80
2022-12-14T14:50:27.647Z,9.10
2022-12-14T14:53:29.442Z,8.87
2022-12-14T14:56:47.447Z,9.27
2022-12-14T15:00:02.843Z,10.13
2022-12-14T15:02:53.118Z,8.47
2022-12-14T15:05:43.789Z,8.33
2022-12-14T15:08:38.311Z,8.77
2022-12-14T15:11:27.685Z,9.50
2022-12-14T15:14:35.381Z,9.20
2022-12-14T15:17:25.887Z,9.23
2022-12-14T15:20:23.365Z,10.33
2022-12-14T15:23:15.425Z,8.33
2022-12-14T15:26:04.974Z,9.40
2022-12-14T15:28:54.686Z,9.37
2022-12-14T15:31:42.310Z,10.33
2022-12-14T15:34:31.175Z,10.80
2022-12-14T15:37:26.356Z,11.50
2022-12-14T15:40:22.622Z,11.10
2022-12-14T15:43:18.719Z,10.53
2022-12-14T15:46:17.668Z,11.33
2022-12-14T15:49:08.173Z,12.10
2022-12-14T15:51:58.982Z,11.57
2022-12-14T15:54:47.120Z,11.03
2022-12-14T15:57:34.717Z,10.83
2022-12-14T16:00:22.246Z,11.57
2022-12-14T16:03:28.239Z,11.77
2022-12-14T16:06:16.023Z,12.97
2022-12-14T16:09:09.000Z,11.87
2022-12-14T16:11:58.180Z,11.70
2022-12-14T16:14:49.441Z,11.53
2022-12-14T16:17:38.439Z,11.83
2022-12-14T16:20:27.048Z,9.93
2022-12-14T16:23:31.474Z,12.37
2022-12-14T16:26:24.968Z,11.73
2022-12-14T16:29:21.248Z,11.37
2022-12-14T16:32:16.301Z,11.77
2022-12-14T16:35:03.733Z,11.13
2022-12-14T16:37:53.372Z,11.37
2022-12-14T16:40:43.040Z,11.20
2022-12-14T16:43:35.327Z,11.80
2022-12-14T16:46:23.114Z,11.93
2022-12-14T16:49:32.159Z,11.63
2022-12-14T16:52:26.911Z,12.10
2022-12-14T16:55:16.337Z,11.90
2022-12-14T16:58:03.703Z,11.90
2022-12-14T17:00:59.897Z,12.20
2022-12-14T17:03:54.210Z,11.07
2022-12-14T17:06:47.632Z,12.80
2022-12-14T17:09:36.427Z,12.30
2022-12-14T17:12:25.297Z,11.53
2022-12-14T17:15:14.682Z,13.00
2022-12-14T17:18:05.709Z,13.10
2022-12-14T17:20:53.379Z,11.37
2022-12-14T17:23:44.100Z,11.13
2022-12-14T17:26:32.995Z,13.27
2022-12-14T17:29:22.326Z,12.27
2022-12-14T17:32:11.980Z,13.07
2022-12-14T17:35:01.875Z,12.77
2022-12-14T17:37:49.545Z,13.13
2022-12-14T17:40:37.906Z,13.77
2022-12-14T17:43:27.830Z,13.30
2022-12-14T17:46:15.924Z,15.53
2022-12-14T17:49:06.656Z,13.30
2022-12-14T17:51:55.619Z,13.00
2022-12-14T17:54:42.746Z,14.10
2022-12-14T17:57:30.242Z,14.20
2022-12-14T18:00:36.661Z,14.03
2022-12-14T18:03:24.313Z,13.50
2022-12-14T18:06:17.662Z,13.93
2022-12-14T18:09:07.929Z,13.27
2022-12-14T18:12:22.072Z,13.23
2022-12-14T18:15:02.553Z,14.13
2022-12-14T18:17:51.584Z,14.17
2022-12-14T18:20:41.110Z,13.70
2022-12-14T18:23:29.457Z,13.67
2022-12-14T18:26:21.027Z,14.17
2022-12-14T18:29:08.730Z,13.13
2022-12-14T18:31:56.235Z,13.13
2022-12-14T18:34:43.674Z,14.30
2022-12-14T18:37:32.946Z,18.67
2022-12-14T18:40:22.081Z,17.30
2022-12-14T18:43:16.125Z,16.70
2022-12-14T18:46:03.557Z,14.20
2022-12-14T18:48:51.134Z,13.63
2022-12-14T18:51:38.683Z,13.93
2022-12-14T18:54:55.390Z,14.03
2022-12-14T18:57:43.402Z,13.33
2022-12-14T19:00:34.754Z,13.17
2022-12-14T19:03:22.637Z,13.90
2022-12-14T19:06:43.012Z,13.03
2022-12-14T19:09:20.675Z,12.57
2022-12-14T19:12:08.657Z,14.03
2022-12-14T19:14:56.060Z,14.77
2022-12-14T19:17:45.066Z,13.27
2022-12-14T19:20:32.441Z,14.10
2022-12-14T19:23:20.742Z,14.20
2022-12-14T19:26:07.772Z,13.93
2022-12-14T19:28:55.114Z,12.47
2022-12-14T19:31:42.792Z,13.27
2022-12-14T19:34:31.475Z,12.43
2022-12-14T19:37:22.606Z,14.77
2022-12-14T19:40:13.759Z,13.53
2022-12-14T19:43:01.235Z,13.07
2022-12-14T19:45:48.483Z,13.93
2022-12-14T19:48:36.098Z,13.53
2022-12-14T19:51:24.770Z,11.97
2022-12-14T19:54:12.003Z,14.80
2022-12-14T19:56:59.429Z,14.17
2022-12-14T19:59:47.015Z,14.87
2022-12-14T20:02:34.608Z,14.77
2022-12-14T20:05:22.384Z,13.17
2022-12-14T20:08:11.317Z,13.63
2022-12-14T20:10:59.012Z,13.20
2022-12-14T20:13:49.359Z,14.67
2022-12-14T20:16:39.270Z,13.33
2022-12-14T20:19:26.608Z,15.37
2022-12-14T20:22:14.945Z,13.50
2022-12-14T20:25:03.501Z,14.53
2022-12-14T20:27:52.748Z,14.83
2022-12-14T20:30:43.835Z,14.67
2022-12-14T20:33:31.284Z,15.33
2022-12-14T20:36:19.093Z,14.77
2022-12-14T20:39:06.993Z,14.43
2022-12-14T20:41:55.564Z,14.87
2022-12-14T20:44:42.838Z,12.77
2022-12-14T20:47:30.381Z,13.30
2022-12-14T20:50:17.902Z,14.47
2022-12-14T20:53:20.434Z,13.40
2022-12-14T20:56:08.802Z,14.73
2022-12-14T20:58:57.770Z,13.73
2022-12-14T21:01:50.065Z,12.73
2022-12-14T21:04:41.177Z,14.07
2022-12-14T21:07:28.920Z,14.67
2022-12-14T21:10:16.387Z,15.17
2022-12-14T21:13:07.559Z,15.20
2022-12-14T21:15:56.788Z,13.80
2022-12-14T21:18:43.972Z,15.27
2022-12-14T21:21:31.781Z,14.97
2022-12-14T21:24:37.348Z,14.33
2022-12-14T21:27:30.145Z,12.80
2022-12-14T21:30:18.395Z,13.37
2022-12-14T21:33:07.086Z,13.27
2022-12-14T21:35:54.303Z,15.00
2022-12-14T21:38:41.853Z,14.50
2022-12-14T21:41:47.062Z,13.77
2022-12-14T21:44:35.780Z,14.73
2022-12-14T21:47:25.293Z,15.67
2022-12-14T21:50:13.791Z,14.50
2022-12-14T21:53:01.249Z,16.23
2022-12-14T21:56:12.595Z,15.37
2022-12-14T21:58:58.971Z,16.90
2022-12-14T22:01:46.540Z,15.10
2022-12-14T22:04:39.525Z,13.27
2022-12-14T22:07:31.825Z,14.97
2022-12-14T22:10:24.534Z,15.27
2022-12-14T22:13:12.413Z,15.37
2022-12-14T22:15:59.947Z,15.00
2022-12-14T22:18:47.581Z,13.60
2022-12-14T22:21:38.801Z,14.63
2022-12-14T22:24:29.031Z,15.13
2022-12-14T22:27:16.502Z,14.47
2022-12-14T22:30:05.411Z,15.33
2022-12-14T22:32:52.811Z,16.23
2022-12-14T22:35:40.396Z,14.57
2022-12-14T22:38:28.127Z,15.63
2022-12-14T22:41:18.211Z,15.43
2022-12-14T22:44:06.294Z,15.47
2022-12-14T22:46:53.656Z,14.47
2022-12-14T22:49:41.156Z,15.03
2022-12-14T22:52:28.658Z,14.63
2022-12-14T22:55:16.401Z,13.70
2022-12-14T22:58:06.482Z,16.83
2022-12-14T23:00:54.550Z,14.87
2022-12-14T23:03:42.048Z,14.53
2022-12-14T23:06:29.884Z,15.10
2022-12-14T23:09:34.795Z,15.27
2022-12-14T23:12:39.795Z,15.80
2022-12-14T23:15:45.672Z,13.93
2022-12-14T23:18:50.295Z,15.20
2022-12-14T23:21:57.072Z,14.53
2022-12-14T23:25:01.540Z,13.70
2022-12-14T23:28:05.956Z,15.27
2022-12-14T23:31:14.549Z,14.53
2022-12-14T23:34:18.930Z,15.83
2022-12-14T23:37:23.359Z,14.90
2022-12-14T23:40:29.057Z,13.37
2022-12-14T23:43:35.705Z,15.40
2022-12-14T23:46:41.890Z,12.87
2022-12-14T23:49:46.357Z,14.53
2022-12-14T23:52:50.710Z,16.10
2022-12-14T23:55:55.002Z,14.23
2022-12-14T23:58:59.436Z,15.03
